createdAt,value
2023-05-06T00:00:27.630Z,12.57
2023-05-06T00:02:54.473Z,12.45
2023-05-06T00:05:21.081Z,13.85
2023-05-06T00:07:47.677Z,11.55
2023-05-06T00:10:17.083Z,11.38
2023-05-06T00:12:43.865Z,12.10
2023-05-06T00:15:13.303Z,13.57
2023-05-06T00:17:39.954Z,13.32
2023-05-06T00:20:07.415Z,13.27
2023-05-06T00:22:36.467Z,12.75
2023-05-06T00:25:03.151Z,14.20
2023-05-06T00:27:29.865Z,13.15
2023-05-06T00:30:01.413Z,13.07
2023-05-06T00:32:28.107Z,13.32
2023-05-06T00:34:54.815Z,12.93
2023-05-06T00:37:21.483Z,15.23
2023-05-06T00:39:50.829Z,13.48
2023-05-06T00:42:17.430Z,14.35
2023-05-06T00:44:44.219Z,15.13
2023-05-06T00:47:10.796Z,11.98
2023-05-06T00:49:39.556Z,11.27
2023-05-06T00:52:09.047Z,13.80
2023-05-06T00:54:35.919Z,17.08
2023-05-06T00:57:02.793Z,14.77
2023-05-06T00:59:29.382Z,14.45
2023-05-06T01:01:56.097Z,12.90
2023-05-06T01:04:26.032Z,16.67
2023-05-06T01:07:03.021Z,16.27
2023-05-06T01:09:42.177Z,15.52
2023-05-06T01:12:17.905Z,12.88
2023-05-06T01:15:11.090Z,13.82
2023-05-06T01:17:50.445Z,14.68
2023-05-06T01:20:18.568Z,14.50
2023-05-06T01:22:50.005Z,18.40
2023-05-06T01:25:21.313Z,15.75
2023-05-06T01:27:50.533Z,16.95
2023-05-06T01:30:19.628Z,17.20
2023-05-06T01:32:55.330Z,17.80
2023-05-06T01:35:52.403Z,17.02
2023-05-06T01:38:31.291Z,15.48
2023-05-06T01:41:00.232Z,17.48
2023-05-06T01:43:32.735Z,17.63
2023-05-06T01:46:01.425Z,16.77
2023-05-06T01:48:33.834Z,18.17
2023-05-06T01:51:00.584Z,17.50
2023-05-06T01:53:27.123Z,19.30
2023-05-06T01:55:53.827Z,16.05
2023-05-06T01:58:20.424Z,18.80
2023-05-06T02:00:47.000Z,18.10
2023-05-06T02:03:19.159Z,17.95
2023-05-06T02:05:46.183Z,16.13
2023-05-06T02:08:13.203Z,16.98
2023-05-06T02:10:39.794Z,16.88
2023-05-06T02:13:06.559Z,16.85
2023-05-06T02:15:33.308Z,27.05
2023-05-06T02:18:00.085Z,18.83
2023-05-06T02:20:26.849Z,16.85
2023-05-06T02:22:53.403Z,18.50
2023-05-06T02:25:22.232Z,17.45
2023-05-06T02:27:48.801Z,18.90
2023-05-06T02:30:20.344Z,14.88
2023-05-06T02:32:47.317Z,17.88
2023-05-06T02:35:13.973Z,18.45
2023-05-06T02:37:40.587Z,18.92
2023-05-06T02:40:08.962Z,19.50
2023-05-06T02:42:36.009Z,18.98
2023-05-06T02:45:05.171Z,18.70
2023-05-06T02:47:31.741Z,16.88
2023-05-06T02:50:00.756Z,16.58
2023-05-06T02:52:27.312Z,18.27
2023-05-06T02:54:53.868Z,15.57
2023-05-06T02:57:25.350Z,17.23
2023-05-06T02:59:54.372Z,15.48
2023-05-06T03:02:20.978Z,20.67
2023-05-06T03:04:47.696Z,16.65
2023-05-06T03:07:14.382Z,16.30
2023-05-06T03:09:40.921Z,15.23
2023-05-06T03:12:07.512Z,16.75
2023-05-06T03:14:34.115Z,18.65
2023-05-06T03:17:00.661Z,18.77
2023-05-06T03:19:27.254Z,16.73
2023-05-06T03:21:53.793Z,13.75
2023-05-06T03:24:20.501Z,14.52
2023-05-06T03:26:49.646Z,17.23
2023-05-06T03:29:16.208Z,14.00
2023-05-06T03:31:42.783Z,15.27
2023-05-06T03:34:09.478Z,16.20
2023-05-06T03:36:36.131Z,15.60
2023-05-06T03:39:02.829Z,14.40
2023-05-06T03:41:31.923Z,14.63
2023-05-06T03:44:01.817Z,17.13
2023-05-06T03:46:30.937Z,12.50
2023-05-06T03:48:58.341Z,13.27
2023-05-06T03:51:24.983Z,14.18
2023-05-06T03:53:54.942Z,13.25
2023-05-06T03:56:22.368Z,12.52
2023-05-06T03:58:49.002Z,16.40
2023-05-06T04:01:17.240Z,12.93
2023-05-06T04:03:46.586Z,13.40
2023-05-06T04:06:13.216Z,13.95
2023-05-06T04:08:39.894Z,14.18
2023-05-06T04:11:07.881Z,14.65
2023-05-06T04:13:35.026Z,13.15
2023-05-06T04:16:01.777Z,15.15
2023-05-06T04:18:28.867Z,13.25
2023-05-06T04:20:55.529Z,14.15
2023-05-06T04:23:22.176Z,15.15
2023-05-06T04:25:48.902Z,12.73
2023-05-06T04:28:19.417Z,11.48
2023-05-06T04:30:46.655Z,13.15
2023-05-06T04:33:13.531Z,12.25
2023-05-06T04:35:40.546Z,12.32
2023-05-06T04:38:07.197Z,14.05
2023-05-06T04:40:39.386Z,12.88
2023-05-06T04:43:06.089Z,12.63
2023-05-06T04:45:37.831Z,15.55
2023-05-06T04:48:04.785Z,12.27
2023-05-06T04:50:34.786Z,13.25
2023-05-06T04:53:01.450Z,11.05
2023-05-06T04:55:30.625Z,14.52
2023-05-06T04:57:57.170Z,12.00
2023-05-06T05:00:26.286Z,13.05
2023-05-06T05:02:55.480Z,10.77
2023-05-06T05:05:22.144Z,11.82
2023-05-06T05:07:51.385Z,10.98
2023-05-06T05:10:17.962Z,10.57
2023-05-06T05:12:44.932Z,11.50
2023-05-06T05:15:11.910Z,12.63
2023-05-06T05:17:38.888Z,12.90
2023-05-06T05:20:06.414Z,11.70
2023-05-06T05:22:33.025Z,14.82
2023-05-06T05:24:59.823Z,11.77
2023-05-06T05:27:26.651Z,10.95
2023-05-06T05:29:53.246Z,12.00
2023-05-06T05:32:20.318Z,10.35
2023-05-06T05:34:47.116Z,10.85
2023-05-06T05:37:13.834Z,12.77
2023-05-06T05:39:42.472Z,10.07
2023-05-06T05:42:09.269Z,12.98
2023-05-06T05:44:35.955Z,11.10
2023-05-06T05:47:03.085Z,11.15
2023-05-06T05:49:30.107Z,10.15
2023-05-06T05:51:57.314Z,11.80
2023-05-06T05:54:24.009Z,10.45
2023-05-06T05:56:51.597Z,10.45
2023-05-06T05:59:20.749Z,11.38
2023-05-06T06:01:47.373Z,9.65
2023-05-06T06:04:14.988Z,12.05
2023-05-06T06:06:49.489Z,11.05
2023-05-06T06:09:17.242Z,9.25
2023-05-06T06:11:46.275Z,11.23
2023-05-06T06:14:12.807Z,9.35
2023-05-06T06:16:39.621Z,11.27
2023-05-06T06:19:06.609Z,11.32
2023-05-06T06:21:33.300Z,11.57
2023-05-06T06:23:59.994Z,9.48
2023-05-06T06:26:26.786Z,10.00
2023-05-06T06:28:53.390Z,9.02
2023-05-06T06:31:20.003Z,9.65
2023-05-06T06:33:46.655Z,10.07
2023-05-06T06:36:15.799Z,13.25
2023-05-06T06:38:42.494Z,9.98
2023-05-06T06:41:09.671Z,8.15
2023-05-06T06:43:36.662Z,10.18
2023-05-06T06:46:03.606Z,8.98
2023-05-06T06:48:30.439Z,10.45
2023-05-06T06:50:59.523Z,9.27
2023-05-06T06:53:30.982Z,8.38
2023-05-06T06:55:57.562Z,8.35
2023-05-06T06:58:24.372Z,8.18
2023-05-06T07:00:51.132Z,9.90
2023-05-06T07:03:19.506Z,9.57
2023-05-06T07:05:46.725Z,8.68
2023-05-06T07:08:13.358Z,8.75
2023-05-06T07:10:42.437Z,9.73
2023-05-06T07:13:09.113Z,9.70
2023-05-06T07:15:36.044Z,10.40
2023-05-06T07:18:02.754Z,8.95
2023-05-06T07:20:30.816Z,9.07
2023-05-06T07:22:57.534Z,12.10
2023-05-06T07:25:24.799Z,10.80
2023-05-06T07:27:51.440Z,11.32
2023-05-06T07:30:22.895Z,12.90
2023-05-06T07:32:49.842Z,12.85
2023-05-06T07:35:16.883Z,16.17
2023-05-06T07:37:46.346Z,15.07
2023-05-06T07:40:18.117Z,15.52
2023-05-06T07:42:45.112Z,16.13
2023-05-06T07:45:12.159Z,13.63
2023-05-06T07:47:39.132Z,16.17
2023-05-06T07:50:06.954Z,14.35
2023-05-06T07:52:36.689Z,13.45
2023-05-06T07:55:04.372Z,16.40
2023-05-06T07:57:31.022Z,14.40
2023-05-06T07:59:59.059Z,14.75
2023-05-06T08:02:32.330Z,15.60
2023-05-06T08:04:59.387Z,15.85
2023-05-06T08:07:28.336Z,15.93
2023-05-06T08:09:54.995Z,15.73
2023-05-06T08:12:21.862Z,14.63
2023-05-06T08:14:48.657Z,15.23
2023-05-06T08:17:15.497Z,15.48
2023-05-06T08:19:42.197Z,14.40
2023-05-06T08:22:09.003Z,20.45
2023-05-06T08:24:35.826Z,15.38
2023-05-06T08:27:03.000Z,14.65
2023-05-06T08:29:29.732Z,14.10
2023-05-06T08:31:58.897Z,14.60
2023-05-06T08:34:25.644Z,15.52
2023-05-06T08:36:52.868Z,17.75
2023-05-06T08:39:19.462Z,16.10
2023-05-06T08:41:52.435Z,15.55
2023-05-06T08:44:23.175Z,14.70
2023-05-06T08:46:50.285Z,17.80
2023-05-06T08:49:19.657Z,15.73
2023-05-06T08:51:47.737Z,18.48
2023-05-06T08:54:17.509Z,15.25
2023-05-06T08:56:48.433Z,14.02
2023-05-06T08:59:17.253Z,14.50
2023-05-06T09:01:44.108Z,16.98
2023-05-06T09:04:11.248Z,13.82
2023-05-06T09:06:38.629Z,15.38
2023-05-06T09:09:06.626Z,17.67
2023-05-06T09:11:33.310Z,15.15
2023-05-06T09:14:08.084Z,12.07
2023-05-06T09:16:34.929Z,18.02
2023-05-06T09:19:03.766Z,16.48
2023-05-06T09:21:36.605Z,12.32
2023-05-06T09:24:07.992Z,13.38
2023-05-06T09:26:36.557Z,16.42
2023-05-06T09:29:09.167Z,12.75
2023-05-06T09:31:44.886Z,9.25
2023-05-06T09:34:12.603Z,9.82
2023-05-06T09:36:39.717Z,9.88
2023-05-06T09:39:06.929Z,14.50
2023-05-06T09:41:33.621Z,12.27
2023-05-06T09:44:00.476Z,9.77
2023-05-06T09:46:33.174Z,11.27
2023-05-06T09:49:00.612Z,9.63
2023-05-06T09:51:31.027Z,11.40
2023-05-06T09:53:59.324Z,10.45
2023-05-06T09:56:33.495Z,13.63
2023-05-06T09:59:04.223Z,7.50
2023-05-06T10:01:36.698Z,10.32
2023-05-06T10:04:08.844Z,8.43
2023-05-06T10:06:39.530Z,7.15
2023-05-06T10:09:10.490Z,8.27
2023-05-06T10:11:37.647Z,8.10
2023-05-06T10:14:06.781Z,7.78
2023-05-06T10:16:36.328Z,11.13
2023-05-06T10:19:04.842Z,7.15
2023-05-06T10:21:34.290Z,8.25
2023-05-06T10:24:07.449Z,7.28
2023-05-06T10:26:38.397Z,6.90
2023-05-06T10:29:10.317Z,7.32
2023-05-06T10:31:46.366Z,7.05
2023-05-06T10:34:16.674Z,5.90
2023-05-06T10:36:46.706Z,5.18
2023-05-06T10:39:14.344Z,7.63
2023-05-06T10:41:41.341Z,6.38
2023-05-06T10:44:10.033Z,6.75
2023-05-06T10:47:01.929Z,7.93
2023-05-06T10:49:29.136Z,9.32
2023-05-06T10:52:17.400Z,8.10
2023-05-06T10:54:51.905Z,12.05
2023-05-06T10:57:20.870Z,8.48
2023-05-06T10:59:51.358Z,5.13
2023-05-06T11:02:22.262Z,4.78
2023-05-06T11:05:00.631Z,5.80
2023-05-06T11:07:27.547Z,8.40
2023-05-06T11:10:02.151Z,12.00
2023-05-06T11:12:51.658Z,9.63
2023-05-06T11:15:26.631Z,6.53
2023-05-06T11:17:55.710Z,6.35
2023-05-06T11:20:25.506Z,10.98
2023-05-06T11:22:53.734Z,21.15
2023-05-06T11:25:40.903Z,7.63
2023-05-06T11:28:12.382Z,5.43
2023-05-06T11:30:44.979Z,6.53
2023-05-06T11:33:22.066Z,4.22
2023-05-06T11:35:48.635Z,5.55
2023-05-06T11:38:15.320Z,5.72
2023-05-06T11:40:42.677Z,5.15
2023-05-06T11:43:14.168Z,4.85
2023-05-06T11:45:48.000Z,9.32
2023-05-06T11:48:15.882Z,4.65
2023-05-06T11:50:49.842Z,6.10
2023-05-06T11:53:21.556Z,3.35
2023-05-06T11:55:49.197Z,2.60
2023-05-06T11:58:17.179Z,5.18
2023-05-06T12:01:03.772Z,3.42
2023-05-06T12:03:32.697Z,3.08
2023-05-06T12:06:02.100Z,3.63
2023-05-06T12:08:32.622Z,3.50
2023-05-06T12:11:05.024Z,4.68
2023-05-06T12:13:32.476Z,4.30
2023-05-06T12:16:02.475Z,3.63
2023-05-06T12:18:31.835Z,3.90
2023-05-06T12:21:06.106Z,5.50
2023-05-06T12:23:35.037Z,5.88
2023-05-06T12:26:04.231Z,9.45
2023-05-06T12:28:32.667Z,3.83
2023-05-06T12:31:17.498Z,4.07
2023-05-06T12:33:46.351Z,5.28
2023-05-06T12:36:13.061Z,7.20
2023-05-06T12:38:49.369Z,5.65
2023-05-06T12:41:16.165Z,4.03
2023-05-06T12:43:42.770Z,2.83
2023-05-06T12:46:12.550Z,2.65
2023-05-06T12:48:39.433Z,5.35
2023-05-06T12:51:32.729Z,2.88
2023-05-06T12:53:59.618Z,2.80
2023-05-06T12:56:29.388Z,4.38
2023-05-06T12:59:01.364Z,3.30
2023-05-06T13:01:31.413Z,3.60
2023-05-06T13:03:58.501Z,5.22
2023-05-06T13:06:25.338Z,4.90
2023-05-06T13:08:51.963Z,2.65
2023-05-06T13:11:18.568Z,5.05
2023-05-06T13:13:47.765Z,3.40
2023-05-06T13:16:14.356Z,2.55
2023-05-06T13:18:43.362Z,2.22
2023-05-06T13:21:14.061Z,2.50
2023-05-06T13:23:47.460Z,2.75
2023-05-06T13:26:15.027Z,4.53
2023-05-06T13:28:41.948Z,4.28
2023-05-06T13:31:08.522Z,4.22
2023-05-06T13:33:38.541Z,3.67
2023-05-06T13:36:10.575Z,3.22
2023-05-06T13:38:37.160Z,2.50
2023-05-06T13:41:03.870Z,5.15
2023-05-06T13:43:35.006Z,2.65
2023-05-06T13:46:04.026Z,1.48
2023-05-06T13:48:30.726Z,3.88
2023-05-06T13:50:57.689Z,2.42
2023-05-06T13:53:24.326Z,4.20
2023-05-06T13:55:50.844Z,2.00
2023-05-06T13:58:19.657Z,3.88
2023-05-06T14:00:48.686Z,3.67
2023-05-06T14:03:15.233Z,2.38
2023-05-06T14:05:42.279Z,4.05
2023-05-06T14:08:09.094Z,2.08
2023-05-06T14:10:35.688Z,3.15
2023-05-06T14:13:06.920Z,2.85
2023-05-06T14:15:33.974Z,3.03
2023-05-06T14:18:03.892Z,2.17
2023-05-06T14:20:30.786Z,2.92
2023-05-06T14:22:59.723Z,2.08
2023-05-06T14:25:28.668Z,5.25
2023-05-06T14:27:58.100Z,1.27
2023-05-06T14:30:25.891Z,6.15
2023-05-06T14:32:52.638Z,7.63
2023-05-06T14:35:19.342Z,10.30
2023-05-06T14:37:46.180Z,2.05
2023-05-06T14:40:16.267Z,2.15
2023-05-06T14:42:42.972Z,1.95
2023-05-06T14:45:10.137Z,4.45
2023-05-06T14:47:37.053Z,18.85
2023-05-06T14:50:03.874Z,5.70
2023-05-06T14:52:31.402Z,8.18
2023-05-06T14:54:58.063Z,21.75
2023-05-06T14:57:24.638Z,7.13
2023-05-06T14:59:54.094Z,17.67
2023-05-06T15:02:21.167Z,4.47
2023-05-06T15:04:52.464Z,4.45
2023-05-06T15:07:19.414Z,3.97
2023-05-06T15:09:45.976Z,1.88
2023-05-06T15:12:15.722Z,4.95
2023-05-06T15:14:44.594Z,2.45
2023-05-06T15:17:12.115Z,3.92
2023-05-06T15:19:40.983Z,2.22
2023-05-06T15:22:12.353Z,3.05
2023-05-06T15:24:39.109Z,4.93
2023-05-06T15:27:05.941Z,3.17
2023-05-06T15:29:32.847Z,1.90
2023-05-06T15:32:04.556Z,3.67
2023-05-06T15:34:31.265Z,2.65
2023-05-06T15:37:01.833Z,2.60
2023-05-06T15:39:28.694Z,1.75
2023-05-06T15:41:58.323Z,2.72
2023-05-06T15:44:27.298Z,2.03
2023-05-06T15:46:53.933Z,4.75
2023-05-06T15:49:48.945Z,3.35
2023-05-06T15:52:07.241Z,2.40
2023-05-06T15:54:37.564Z,1.60
2023-05-06T15:57:09.783Z,2.75
2023-05-06T15:59:36.419Z,4.80
2023-05-06T16:04:38.974Z,2.25
2023-05-06T16:07:05.770Z,4.68
2023-05-06T16:09:32.559Z,5.95
2023-05-06T16:12:01.620Z,3.70
2023-05-06T16:14:28.453Z,3.42
2023-05-06T16:16:55.068Z,4.28
2023-05-06T16:19:22.242Z,2.83
2023-05-06T16:21:51.448Z,6.65
2023-05-06T16:24:18.061Z,4.38
2023-05-06T16:26:44.885Z,7.10
2023-05-06T16:29:11.644Z,6.15
2023-05-06T16:31:38.453Z,6.32
2023-05-06T16:34:05.169Z,2.50
2023-05-06T16:36:34.184Z,7.10
2023-05-06T16:39:01.003Z,3.25
2023-05-06T16:41:27.988Z,4.30
2023-05-06T16:43:54.725Z,5.32
2023-05-06T16:46:24.772Z,5.88
2023-05-06T16:48:51.843Z,8.57
2023-05-06T16:51:18.505Z,4.72
2023-05-06T16:53:48.097Z,4.25
2023-05-06T16:56:14.689Z,4.20
2023-05-06T16:58:42.620Z,5.25
2023-05-06T17:01:09.795Z,6.88
2023-05-06T17:03:40.440Z,3.47
2023-05-06T17:06:07.839Z,3.28
2023-05-06T17:08:38.333Z,5.03
2023-05-06T17:11:08.588Z,3.72
2023-05-06T17:13:37.666Z,3.60
2023-05-06T17:16:04.778Z,5.18
2023-05-06T17:18:31.373Z,3.83
2023-05-06T17:20:57.997Z,3.70
2023-05-06T17:23:25.261Z,5.85
2023-05-06T17:25:51.986Z,4.47
2023-05-06T17:28:25.842Z,3.63
2023-05-06T17:30:59.496Z,3.15
2023-05-06T17:33:26.132Z,5.03
2023-05-06T17:35:52.660Z,3.85
2023-05-06T17:38:19.414Z,3.78
2023-05-06T17:40:45.976Z,3.63
2023-05-06T17:43:12.774Z,3.35
2023-05-06T17:45:43.206Z,5.18
2023-05-06T17:48:09.857Z,3.88
2023-05-06T17:50:36.472Z,5.45
2023-05-06T17:53:05.367Z,2.80
2023-05-06T17:55:31.992Z,5.25
2023-05-06T17:57:58.633Z,2.67
2023-05-06T18:00:25.765Z,5.60
2023-05-06T18:02:53.071Z,3.83
2023-05-06T18:05:19.834Z,5.90
2023-05-06T18:07:46.753Z,3.63
2023-05-06T18:10:13.835Z,5.45
2023-05-06T18:12:40.616Z,4.15
2023-05-06T18:15:08.528Z,5.03
2023-05-06T18:17:35.671Z,4.80
2023-05-06T18:20:02.433Z,4.22
2023-05-06T18:22:29.117Z,4.80
2023-05-06T18:24:56.085Z,3.65
2023-05-06T18:27:23.194Z,5.00
2023-05-06T18:29:53.079Z,5.28
2023-05-06T18:32:19.913Z,3.78
2023-05-06T18:34:49.160Z,2.95
2023-05-06T18:37:15.828Z,3.35
2023-05-06T18:39:45.538Z,5.70
2023-05-06T18:42:15.141Z,5.07
2023-05-06T18:44:43.158Z,4.10
2023-05-06T18:47:09.730Z,5.40
2023-05-06T18:49:38.851Z,4.85
2023-05-06T18:52:05.960Z,3.33
2023-05-06T18:54:32.688Z,6.72
2023-05-06T18:57:02.687Z,6.45
2023-05-06T18:59:29.494Z,4.47
2023-05-06T19:01:56.124Z,6.22
2023-05-06T19:04:25.126Z,5.43
2023-05-06T19:07:01.487Z,6.38
2023-05-06T19:09:28.358Z,4.88
2023-05-06T19:11:55.824Z,8.77
2023-05-06T19:14:25.867Z,6.32
2023-05-06T19:16:55.038Z,4.50
2023-05-06T19:19:21.919Z,3.85
2023-05-06T19:21:51.138Z,7.38
2023-05-06T19:24:22.973Z,5.72
2023-05-06T19:26:49.550Z,8.05
2023-05-06T19:29:16.159Z,6.72
2023-05-06T19:31:42.744Z,5.75
2023-05-06T19:34:09.371Z,6.30
2023-05-06T19:36:36.014Z,13.63
2023-05-06T19:39:02.581Z,13.13
2023-05-06T19:41:29.446Z,15.32
2023-05-06T19:43:58.529Z,23.73
2023-05-06T19:46:27.611Z,13.80
2023-05-06T19:48:54.184Z,10.32
2023-05-06T19:51:20.971Z,11.85
2023-05-06T19:53:49.115Z,9.30
2023-05-06T19:56:17.200Z,11.85
2023-05-06T19:58:44.394Z,7.53
2023-05-06T20:01:11.000Z,7.43
2023-05-06T20:03:38.060Z,8.13
2023-05-06T20:06:05.176Z,6.53
2023-05-06T20:08:31.953Z,10.10
2023-05-06T20:10:58.507Z,7.45
2023-05-06T20:13:29.989Z,7.57
2023-05-06T20:16:02.127Z,6.60
2023-05-06T20:18:28.830Z,8.05
2023-05-06T20:20:58.504Z,5.90
2023-05-06T20:23:25.956Z,6.85
2023-05-06T20:25:53.433Z,6.75
2023-05-06T20:28:20.243Z,10.13
2023-05-06T20:30:48.495Z,10.77
2023-05-06T20:33:17.339Z,7.95
2023-05-06T20:35:46.902Z,6.43
2023-05-06T20:38:17.222Z,6.13
2023-05-06T20:40:50.157Z,6.60
2023-05-06T20:43:17.312Z,7.53
2023-05-06T20:45:44.436Z,6.95
2023-05-06T20:48:12.915Z,10.68
2023-05-06T20:50:41.311Z,7.53
2023-05-06T20:53:10.740Z,8.00
2023-05-06T20:55:37.966Z,7.57
2023-05-06T20:58:05.583Z,7.07
2023-05-06T21:00:34.602Z,6.25
2023-05-06T21:03:05.335Z,6.85
2023-05-06T21:05:32.793Z,7.75
2023-05-06T21:07:59.735Z,12.63
2023-05-06T21:10:26.549Z,10.63
2023-05-06T21:12:53.521Z,11.35
2023-05-06T21:15:22.755Z,13.30
2023-05-06T21:17:51.970Z,8.38
2023-05-06T21:20:19.604Z,10.77
2023-05-06T21:22:46.638Z,13.38
2023-05-06T21:25:13.803Z,10.23
2023-05-06T21:27:40.699Z,8.63
2023-05-06T21:30:09.166Z,9.65
2023-05-06T21:32:36.283Z,14.25
2023-05-06T21:35:03.573Z,11.25
2023-05-06T21:37:30.561Z,10.05
2023-05-06T21:40:02.854Z,9.20
2023-05-06T21:42:30.358Z,10.00
2023-05-06T21:45:02.659Z,11.30
2023-05-06T21:47:29.730Z,11.98
2023-05-06T21:49:59.865Z,8.02
2023-05-06T21:52:27.058Z,9.13
2023-05-06T21:54:56.493Z,10.45
2023-05-06T21:57:27.589Z,10.68
2023-05-06T21:59:54.844Z,9.75
2023-05-06T22:02:24.846Z,8.57
2023-05-06T22:04:51.843Z,13.57
2023-05-06T22:07:21.256Z,10.05
2023-05-06T22:09:48.467Z,8.77
2023-05-06T22:12:17.688Z,10.43
2023-05-06T22:14:44.938Z,8.70
2023-05-06T22:17:19.201Z,7.95
2023-05-06T22:19:47.004Z,8.30
2023-05-06T22:22:17.240Z,10.88
2023-05-06T22:24:44.244Z,9.10
2023-05-06T22:27:11.659Z,8.75
2023-05-06T22:29:38.603Z,11.75
2023-05-06T22:32:09.373Z,11.13
2023-05-06T22:34:41.288Z,9.75
2023-05-06T22:37:13.630Z,9.10
2023-05-06T22:39:41.065Z,12.02
2023-05-06T22:42:08.800Z,9.23
2023-05-06T22:44:36.118Z,10.75
2023-05-06T22:47:05.811Z,9.25
2023-05-06T22:49:32.968Z,9.25
2023-05-06T22:52:00.044Z,11.23
2023-05-06T22:54:29.571Z,11.48
2023-05-06T22:56:59.141Z,9.45
2023-05-06T22:59:26.229Z,10.50
2023-05-06T23:01:53.398Z,10.98
2023-05-06T23:04:20.539Z,13.15
2023-05-06T23:06:50.147Z,11.32
2023-05-06T23:09:19.899Z,9.45
2023-05-06T23:11:48.993Z,11.57
2023-05-06T23:14:18.164Z,10.63
2023-05-06T23:16:48.204Z,11.65
2023-05-06T23:19:14.998Z,12.20
2023-05-06T23:21:43.921Z,11.82
2023-05-06T23:24:11.633Z,11.32
2023-05-06T23:26:40.589Z,11.05
2023-05-06T23:29:10.376Z,10.38
2023-05-06T23:31:37.282Z,12.70
2023-05-06T23:34:07.523Z,11.32
2023-05-06T23:36:34.449Z,11.27
2023-05-06T23:39:11.591Z,11.60
2023-05-06T23:41:38.626Z,14.80
2023-05-06T23:44:06.590Z,9.05
2023-05-06T23:46:33.506Z,13.73
2023-05-06T23:49:00.620Z,11.60
2023-05-06T23:51:29.888Z,10.98
2023-05-06T23:53:56.897Z,10.70
2023-05-06T23:56:26.693Z,7.70
2023-05-06T23:58:55.674Z,9.73
